Time;durP1;ratioP1;P1;durP2;ratioP2;P2;SDS_P1;SDS_P2;PMS_P1;PMS_P2;Temp;Humidity;BMP_temperature;BMP_pressure;BME280_temperature;BME280_humidity;BME280_pressure;Samples;Min_cycle;Max_cycle;Signal;HPM_P1;HPM_P2
2022/12/14 00:01:20;;;;;;;9.00;8.80;;;-3.70;99.90;;;;;;5139806;27;20279;-84
2022/12/14 00:03:48;;;;;;;8.80;8.60;;;-3.70;99.90;;;;;;5140061;27;20343;-82
2022/12/14 00:06:19;;;;;;;8.63;8.43;;;-3.70;99.90;;;;;;5139874;27;20229;-81
2022/12/14 00:08:47;;;;;;;8.60;8.40;;;-3.70;99.90;;;;;;5139306;27;20409;-82
2022/12/14 00:11:21;;;;;;;8.90;8.70;;;-3.60;99.90;;;;;;5139599;27;20347;-83
2022/12/14 00:13:57;;;;;;;8.80;8.60;;;-3.50;99.90;;;;;;5139475;27;20232;-83
2022/12/14 00:16:26;;;;;;;8.83;8.63;;;-3.50;99.90;;;;;;5140538;27;20235;-83
2022/12/14 00:19:04;;;;;;;8.80;8.60;;;-3.50;99.90;;;;;;5139828;27;20251;-83
2022/12/14 00:21:31;;;;;;;9.00;8.80;;;-3.50;99.90;;;;;;5139315;27;20220;-84
2022/12/14 00:24:00;;;;;;;8.80;8.60;;;-3.50;99.90;;;;;;5139170;27;20232;-83
2022/12/14 00:26:36;;;;;;;8.90;8.70;;;-3.50;99.90;;;;;;5139989;27;20230;-84
2022/12/14 00:29:08;;;;;;;8.70;8.50;;;-3.50;99.90;;;;;;5139975;27;20220;-84
2022/12/14 00:31:38;;;;;;;9.00;8.80;;;-3.50;99.90;;;;;;5140527;27;20388;-88
2022/12/14 00:34:07;;;;;;;8.97;8.77;;;-3.60;99.90;;;;;;5141342;27;20244;-85
2022/12/14 00:36:36;;;;;;;8.90;8.70;;;-3.60;99.90;;;;;;5140686;27;20228;-85
2022/12/14 00:39:06;;;;;;;8.90;8.70;;;-3.50;99.90;;;;;;5153702;27;20222;-86
2022/12/14 00:41:35;;;;;;;8.87;8.67;;;-3.50;99.90;;;;;;5154299;22;20232;-80
2022/12/14 00:44:04;;;;;;;8.93;8.73;;;-3.50;99.90;;;;;;5125142;28;20234;-80
2022/12/14 00:46:37;;;;;;;8.87;8.67;;;-3.40;99.90;;;;;;5116187;28;20213;-81
2022/12/14 00:49:04;;;;;;;8.83;8.63;;;-3.30;99.90;;;;;;5124898;28;20244;-81
2022/12/14 00:51:33;;;;;;;8.60;8.40;;;-3.30;99.90;;;;;;5124123;27;20324;-80
2022/12/14 00:54:03;;;;;;;8.87;8.67;;;-3.40;99.90;;;;;;5124178;28;20315;-81
2022/12/14 00:56:35;;;;;;;8.80;8.60;;;-3.40;99.90;;;;;;5125174;28;20320;-81
2022/12/14 00:59:04;;;;;;;8.50;8.30;;;-3.50;99.90;;;;;;5122882;27;20320;-81
2022/12/14 01:01:31;;;;;;;8.70;8.50;;;-3.60;99.90;;;;;;5123798;28;20292;-81
2022/12/14 01:06:40;;;;;;;8.90;8.70;;;-3.50;99.90;;;;;;5111588;28;20220;-80
2022/12/14 01:09:08;;;;;;;8.60;8.40;;;-3.50;99.90;;;;;;5103753;28;20221;-80
2022/12/14 01:11:38;;;;;;;8.50;8.30;;;-3.60;99.90;;;;;;5103806;28;21055;-80
2022/12/14 01:14:10;;;;;;;8.50;8.30;;;-3.60;99.90;;;;;;5106438;28;20222;-81
2022/12/14 01:16:37;;;;;;;8.63;8.43;;;-3.50;99.90;;;;;;5105003;28;20221;-80
2022/12/14 01:19:05;;;;;;;8.87;8.67;;;-3.50;99.90;;;;;;5103521;28;20264;-81
2022/12/14 01:21:34;;;;;;;8.40;8.20;;;-3.50;99.90;;;;;;5102983;28;20233;-81
2022/12/14 01:24:03;;;;;;;8.70;8.50;;;-3.50;99.90;;;;;;5103559;28;20239;-80
2022/12/14 01:26:33;;;;;;;8.90;8.70;;;-3.50;99.90;;;;;;5116006;28;20225;-81
2022/12/14 01:29:00;;;;;;;8.97;8.77;;;-3.50;99.90;;;;;;5123009;28;20259;-80
2022/12/14 01:31:36;;;;;;;8.90;8.70;;;-3.50;99.90;;;;;;5124862;27;20233;-81
2022/12/14 01:34:03;;;;;;;9.00;8.80;;;-3.40;99.90;;;;;;5125364;28;20250;-80
2022/12/14 01:36:33;;;;;;;9.07;8.87;;;-3.50;99.90;;;;;;5123739;28;20221;-80
2022/12/14 01:39:03;;;;;;;8.87;8.67;;;-3.50;99.90;;;;;;5123341;28;20240;-81
2022/12/14 01:41:34;;;;;;;8.67;8.47;;;-3.40;99.90;;;;;;5122698;28;20296;-80
2022/12/14 01:44:09;;;;;;;8.80;8.60;;;-3.40;99.90;;;;;;5123730;28;20309;-80
2022/12/14 01:46:47;;;;;;;9.30;9.00;;;-3.40;99.90;;;;;;5123703;28;20228;-80
2022/12/14 01:49:27;;;;;;;8.70;8.50;;;-3.30;99.90;;;;;;5129241;28;20236;-80
2022/12/14 01:52:05;;;;;;;9.33;9.03;;;-3.30;99.90;;;;;;5135323;27;20244;-81
2022/12/14 01:54:38;;;;;;;8.87;8.67;;;-3.40;99.90;;;;;;5137335;28;20234;-79
2022/12/14 01:57:06;;;;;;;8.53;8.33;;;-3.40;99.90;;;;;;5128340;28;20209;-81
2022/12/14 01:59:37;;;;;;;8.67;8.47;;;-3.50;99.90;;;;;;5131161;28;20241;-81
2022/12/14 02:02:14;;;;;;;8.70;8.50;;;-3.40;99.90;;;;;;5126385;28;20236;-81
2022/12/14 02:04:50;;;;;;;8.90;8.70;;;-3.40;99.90;;;;;;5124096;28;20333;-81
2022/12/14 02:07:19;;;;;;;8.87;8.67;;;-3.40;99.90;;;;;;5124156;28;20227;-80
2022/12/14 02:09:50;;;;;;;8.90;8.70;;;-3.50;99.90;;;;;;5123147;28;20234;-81
2022/12/14 02:12:20;;;;;;;8.77;8.57;;;-3.40;99.90;;;;;;5122720;27;20272;-81
2022/12/14 02:14:48;;;;;;;8.80;8.60;;;-3.40;99.90;;;;;;5122278;28;20220;-80
2022/12/14 02:17:27;;;;;;;8.73;8.53;;;-3.30;99.90;;;;;;5122521;28;20231;-81
2022/12/14 02:19:56;;;;;;;9.00;8.80;;;-3.40;99.90;;;;;;5121759;28;20315;-80
2022/12/14 02:23:26;;;;;;;8.60;8.40;;;-3.30;99.90;;;;;;5112721;28;20260;-80
2022/12/14 02:26:48;;;;;;;8.30;8.10;;;-3.30;99.90;;;;;;5101873;28;20237;-81
2022/12/14 02:30:02;;;;;;;8.43;8.23;;;-3.40;99.90;;;;;;5096504;27;20247;-81
2022/12/14 02:33:25;;;;;;;8.47;8.27;;;-3.40;99.90;;;;;;5124021;28;20236;-80
2022/12/14 02:36:05;;;;;;;8.53;8.33;;;-3.40;99.90;;;;;;5103279;28;20232;-80
2022/12/14 02:38:49;;;;;;;8.67;8.47;;;-3.30;99.90;;;;;;5102316;28;20317;-81
2022/12/14 02:41:29;;;;;;;8.17;7.97;;;-3.30;99.90;;;;;;5101325;28;20245;-80
2022/12/14 02:44:06;;;;;;;8.40;8.20;;;-3.20;99.90;;;;;;5101339;28;20289;-81
2022/12/14 02:46:47;;;;;;;8.43;8.23;;;-3.20;99.90;;;;;;5101998;28;20226;-80
2022/12/14 02:49:24;;;;;;;7.83;7.63;;;-3.20;99.90;;;;;;5110287;28;20236;-81
2022/12/14 02:52:02;;;;;;;8.10;7.90;;;-3.20;99.90;;;;;;5104767;28;20320;-81
2022/12/14 02:54:39;;;;;;;8.47;8.27;;;-3.20;99.90;;;;;;5102460;28;20240;-80
2022/12/14 02:57:19;;;;;;;8.40;8.20;;;-3.40;99.90;;;;;;5102454;28;20222;-80
2022/12/14 02:59:49;;;;;;;8.63;8.43;;;-3.40;99.90;;;;;;5101108;28;20232;-80
2022/12/14 03:02:19;;;;;;;8.40;8.20;;;-3.40;99.90;;;;;;5100663;28;20225;-81
2022/12/14 03:04:48;;;;;;;8.70;8.50;;;-3.40;99.90;;;;;;5101281;28;20234;-81
2022/12/14 03:07:42;;;;;;;8.43;8.23;;;-3.40;99.90;;;;;;5101160;28;20233;-80
2022/12/14 03:10:21;;;;;;;8.40;8.20;;;-3.40;99.90;;;;;;5105631;28;20232;-81
2022/12/14 03:12:58;;;;;;;8.33;8.13;;;-3.50;99.90;;;;;;5103408;28;20308;-80
2022/12/14 03:15:28;;;;;;;8.30;8.10;;;-3.40;99.90;;;;;;5103261;28;20244;-80
2022/12/14 03:18:07;;;;;;;8.10;7.90;;;-3.40;99.90;;;;;;5102156;28;20301;-80
2022/12/14 03:20:37;;;;;;;8.70;8.50;;;-3.40;99.90;;;;;;5101134;28;20229;-80
2022/12/14 03:23:13;;;;;;;8.37;8.17;;;-3.40;99.90;;;;;;5103542;28;20230;-80
2022/12/14 03:25:52;;;;;;;8.30;8.10;;;-3.40;99.90;;;;;;5105521;28;20232;-80
2022/12/14 03:28:30;;;;;;;8.57;8.37;;;-3.40;99.90;;;;;;5105381;28;20239;-80
2022/12/14 03:31:08;;;;;;;8.50;8.30;;;-3.40;99.90;;;;;;5105128;28;20238;-80
2022/12/14 03:33:46;;;;;;;8.50;8.30;;;-3.40;99.90;;;;;;5114341;28;20221;-81
2022/12/14 03:36:24;;;;;;;8.47;8.27;;;-3.40;99.90;;;;;;5111429;28;20289;-80
2022/12/14 03:38:55;;;;;;;8.13;7.93;;;-3.30;99.90;;;;;;5107770;28;20241;-81
2022/12/14 03:41:32;;;;;;;8.33;8.13;;;-3.40;99.90;;;;;;5104917;28;20241;-80
2022/12/14 03:44:19;;;;;;;8.20;8.00;;;-3.30;99.90;;;;;;5111250;28;20233;-80
2022/12/14 03:46:57;;;;;;;8.10;7.90;;;-3.30;99.90;;;;;;5104591;28;20232;-80
2022/12/14 03:49:54;;;;;;;8.20;8.00;;;-3.30;99.90;;;;;;5104609;28;20249;-81
2022/12/14 03:52:32;;;;;;;8.50;8.30;;;-3.40;99.90;;;;;;5104413;28;20235;-80
2022/12/14 03:55:11;;;;;;;8.03;7.83;;;-3.40;99.90;;;;;;5104039;28;20300;-81
2022/12/14 03:58:00;;;;;;;7.73;7.53;;;-3.40;99.90;;;;;;5104510;28;20237;-80
2022/12/14 04:00:37;;;;;;;7.93;7.73;;;-3.50;99.90;;;;;;5103399;28;20292;-81
2022/12/14 04:03:16;;;;;;;8.10;7.90;;;-3.50;99.90;;;;;;5103521;28;20241;-79
2022/12/14 04:05:53;;;;;;;8.07;7.87;;;-3.50;99.90;;;;;;5104553;28;20222;-80
2022/12/14 04:08:31;;;;;;;8.00;7.80;;;-3.50;99.90;;;;;;5104162;28;20225;-80
2022/12/14 04:19:34;;;;;;;7.80;7.60;;;-3.40;99.90;;;;;;5103997;28;20249;-80
2022/12/14 04:22:09;;;;;;;7.87;7.67;;;-3.40;99.90;;;;;;5104357;28;20263;-80
2022/12/14 04:27:42;;;;;;;7.73;7.53;;;-3.40;99.90;;;;;;5105384;28;20274;-81
2022/12/14 04:30:11;;;;;;;8.10;7.90;;;-3.40;99.90;;;;;;5103687;28;20265;-80
2022/12/14 04:32:44;;;;;;;8.10;7.90;;;-3.40;99.90;;;;;;5103043;28;20252;-81
2022/12/14 04:35:22;;;;;;;8.40;8.20;;;-3.40;99.90;;;;;;5103407;28;20232;-81
2022/12/14 04:37:59;;;;;;;8.40;8.20;;;-3.30;99.90;;;;;;5103470;28;20213;-80
2022/12/14 04:40:39;;;;;;;7.90;7.70;;;-3.20;99.90;;;;;;5103313;28;20258;-80
2022/12/14 04:43:14;;;;;;;8.00;7.80;;;-3.20;99.90;;;;;;5103475;28;20231;-80
2022/12/14 04:45:47;;;;;;;7.87;7.67;;;-3.10;99.90;;;;;;5103461;28;20229;-80
2022/12/14 04:48:24;;;;;;;8.27;8.07;;;-3.20;99.90;;;;;;5102563;28;20237;-80
2022/12/14 04:51:01;;;;;;;8.20;8.00;;;-3.20;99.90;;;;;;5102691;28;20335;-79
2022/12/14 04:53:38;;;;;;;8.10;7.90;;;-3.30;99.90;;;;;;5102956;28;20309;-80
2022/12/14 04:56:17;;;;;;;8.20;8.00;;;-3.30;99.90;;;;;;5102905;28;20293;-81
2022/12/14 04:58:46;;;;;;;8.30;8.10;;;-3.40;99.90;;;;;;5103081;28;20237;-79
2022/12/14 05:01:33;;;;;;;8.40;8.20;;;-3.40;99.90;;;;;;5102834;28;20316;-80
2022/12/14 05:04:12;;;;;;;8.23;8.03;;;-3.40;99.90;;;;;;5102716;28;20229;-80
2022/12/14 05:06:59;;;;;;;8.37;8.17;;;-3.40;99.90;;;;;;5102770;28;20231;-80
2022/12/14 05:09:38;;;;;;;8.50;8.30;;;-3.50;99.90;;;;;;5103004;28;20235;-80
2022/12/14 05:12:16;;;;;;;8.30;8.10;;;-3.40;99.90;;;;;;5109188;28;20233;-79
2022/12/14 05:14:48;;;;;;;8.50;8.30;;;-3.40;99.90;;;;;;5117832;28;20230;-79
2022/12/14 05:17:16;;;;;;;8.23;8.03;;;-3.30;99.90;;;;;;5109384;28;20279;-81
2022/12/14 05:19:46;;;;;;;8.23;8.03;;;-3.40;99.90;;;;;;5103665;28;20229;-81
2022/12/14 05:22:13;;;;;;;8.50;8.30;;;-3.40;99.90;;;;;;5103813;28;20261;-80
2022/12/14 05:24:45;;;;;;;8.30;8.10;;;-3.50;99.90;;;;;;5103227;28;20284;-81
2022/12/14 05:27:13;;;;;;;8.57;8.37;;;-3.50;99.90;;;;;;5103587;28;20272;-79
2022/12/14 05:29:42;;;;;;;8.07;7.87;;;-3.50;99.90;;;;;;5102529;28;20237;-80
2022/12/14 05:32:11;;;;;;;8.23;8.03;;;-3.50;99.90;;;;;;5102360;28;20275;-80
2022/12/14 05:34:43;;;;;;;8.50;8.30;;;-3.50;99.90;;;;;;5102672;28;20260;-81
2022/12/14 05:37:10;;;;;;;8.40;8.20;;;-3.50;99.90;;;;;;5103043;28;20217;-79
2022/12/14 05:39:39;;;;;;;8.37;8.17;;;-3.50;99.90;;;;;;5112516;28;20233;-80
2022/12/14 05:42:11;;;;;;;8.43;8.23;;;-3.50;99.90;;;;;;5111809;28;20279;-80
2022/12/14 05:44:38;;;;;;;8.30;8.10;;;-3.50;99.90;;;;;;5104776;28;20261;-80
2022/12/14 05:47:08;;;;;;;8.40;8.20;;;-3.50;99.90;;;;;;5103117;28;20229;-81
2022/12/14 05:49:37;;;;;;;8.47;8.27;;;-3.50;99.90;;;;;;5102725;28;20225;-80
2022/12/14 05:52:07;;;;;;;8.33;8.13;;;-3.50;99.90;;;;;;5105900;28;20235;-81
2022/12/14 05:54:36;;;;;;;8.20;8.00;;;-3.50;99.90;;;;;;5105624;28;20288;-80
2022/12/14 05:57:08;;;;;;;8.10;7.90;;;-3.40;99.90;;;;;;5102530;28;20268;-81
2022/12/14 05:59:39;;;;;;;8.40;8.20;;;-3.40;99.90;;;;;;5102025;28;20302;-80
2022/12/14 06:02:06;;;;;;;7.97;7.77;;;-3.40;99.90;;;;;;5102376;28;20275;-80
2022/12/14 06:04:35;;;;;;;8.30;8.10;;;-3.40;99.90;;;;;;5102597;28;20363;-81
2022/12/14 06:07:05;;;;;;;8.03;7.83;;;-3.40;99.90;;;;;;5101796;28;20240;-80
2022/12/14 06:09:34;;;;;;;8.30;8.10;;;-3.30;99.90;;;;;;5102407;28;20245;-80
2022/12/14 06:12:06;;;;;;;8.17;7.97;;;-3.30;99.90;;;;;;5101373;28;20273;-79
2022/12/14 06:14:34;;;;;;;8.20;8.00;;;-3.30;99.90;;;;;;5102364;28;20256;-80
2022/12/14 06:17:05;;;;;;;8.20;8.00;;;-3.20;99.90;;;;;;5101676;28;20235;-81
2022/12/14 06:19:32;;;;;;;8.20;8.00;;;-3.20;99.90;;;;;;5103190;28;20264;-80
2022/12/14 06:22:01;;;;;;;8.10;7.90;;;-3.10;99.90;;;;;;5102855;28;20275;-80
2022/12/14 06:24:31;;;;;;;8.00;7.80;;;-3.10;99.90;;;;;;5113557;28;20233;-80
2022/12/14 06:27:01;;;;;;;7.90;7.70;;;-3.20;99.90;;;;;;5122561;28;20239;-80
2022/12/14 06:29:30;;;;;;;8.00;7.80;;;-3.20;99.90;;;;;;5122722;28;20243;-81
2022/12/14 06:32:02;;;;;;;7.80;7.60;;;-3.20;99.90;;;;;;5122090;28;20220;-80
2022/12/14 06:34:31;;;;;;;8.00;7.80;;;-3.20;99.90;;;;;;5123028;28;20239;-80
2022/12/14 06:36:58;;;;;;;8.23;8.03;;;-3.20;99.90;;;;;;5122326;28;20292;-80
2022/12/14 06:39:28;;;;;;;7.90;7.70;;;-3.10;99.90;;;;;;5122081;28;20228;-80
2022/12/14 06:41:56;;;;;;;8.00;7.80;;;-3.00;99.90;;;;;;5158757;22;20231;-82
2022/12/14 06:44:26;;;;;;;7.90;7.70;;;-3.10;99.90;;;;;;5153125;27;20311;-82
2022/12/14 06:46:56;;;;;;;8.37;8.17;;;-3.00;99.90;;;;;;5142322;27;20307;-82
2022/12/14 06:49:26;;;;;;;8.40;8.20;;;-3.00;99.90;;;;;;5140868;27;20244;-82
2022/12/14 06:51:57;;;;;;;8.60;8.40;;;-3.00;99.90;;;;;;5149491;27;20299;-83
2022/12/14 06:54:25;;;;;;;8.60;8.40;;;-2.90;99.90;;;;;;5158027;27;20323;-82
2022/12/14 06:56:53;;;;;;;8.70;8.50;;;-2.90;99.90;;;;;;5161736;27;20226;-82
2022/12/14 06:59:23;;;;;;;8.80;8.60;;;-3.00;99.90;;;;;;5164896;27;20278;-82
2022/12/14 07:01:55;;;;;;;8.83;8.63;;;-3.00;99.90;;;;;;5155822;27;20238;-82
2022/12/14 07:04:23;;;;;;;8.50;8.30;;;-3.10;99.90;;;;;;5146996;27;20243;-82
2022/12/14 07:06:51;;;;;;;8.60;8.40;;;-3.00;99.90;;;;;;5143354;27;20229;-82
2022/12/14 07:09:23;;;;;;;8.70;8.50;;;-3.00;99.90;;;;;;5143805;27;20231;-81
2022/12/14 07:11:51;;;;;;;9.17;8.87;;;-2.90;99.90;;;;;;5143575;27;20232;-81
2022/12/14 07:14:20;;;;;;;9.00;8.80;;;-2.90;99.90;;;;;;5143579;27;20315;-82
2022/12/14 07:16:52;;;;;;;8.70;8.50;;;-2.90;99.90;;;;;;5143060;27;20260;-81
2022/12/14 07:19:19;;;;;;;9.07;8.80;;;-2.90;99.90;;;;;;5143275;27;20216;-82
2022/12/14 07:21:48;;;;;;;8.97;8.77;;;-3.00;99.90;;;;;;5143222;27;20363;-82
2022/12/14 07:24:17;;;;;;;8.80;8.60;;;-3.00;99.90;;;;;;5143129;27;20261;-82
2022/12/14 07:26:55;;;;;;;8.73;8.53;;;-3.00;99.90;;;;;;5143580;27;20339;-82
2022/12/14 07:29:25;;;;;;;9.00;8.80;;;-2.90;99.90;;;;;;5144237;27;20315;-81
2022/12/14 07:31:54;;;;;;;9.20;8.90;;;-2.90;99.90;;;;;;5142814;27;20241;-82
2022/12/14 07:34:24;;;;;;;8.87;8.67;;;-2.80;99.90;;;;;;5143251;27;20235;-82
2022/12/14 07:36:53;;;;;;;9.20;8.90;;;-2.80;99.90;;;;;;5143442;27;20232;-82
2022/12/14 07:39:23;;;;;;;8.70;8.50;;;-2.80;99.90;;;;;;5142717;27;20250;-82
2022/12/14 07:41:55;;;;;;;8.83;8.63;;;-2.70;99.90;;;;;;5142159;27;20240;-82
2022/12/14 07:44:23;;;;;;;9.00;8.77;;;-2.70;99.90;;;;;;5142912;27;20231;-83
2022/12/14 07:46:52;;;;;;;8.87;8.67;;;-2.70;99.90;;;;;;5150510;27;20311;-83
2022/12/14 07:49:21;;;;;;;9.30;9.00;;;-2.80;99.90;;;;;;5141806;27;20281;-83
2022/12/14 07:51:51;;;;;;;9.30;9.00;;;-2.80;99.90;;;;;;5141988;27;20233;-83
2022/12/14 07:54:20;;;;;;;8.83;8.63;;;-2.80;99.90;;;;;;5142585;27;20251;-83
2022/12/14 07:56:52;;;;;;;9.20;8.90;;;-2.80;99.90;;;;;;5142540;27;20232;-83
2022/12/14 07:59:23;;;;;;;9.13;8.90;;;-2.80;99.90;;;;;;5145653;27;20255;-82
2022/12/14 08:01:52;;;;;;;8.80;8.60;;;-2.70;99.90;;;;;;5143467;27;20299;-82
2022/12/14 08:04:20;;;;;;;9.63;9.32;;;-2.70;99.90;;;;;;5144777;27;20380;-82
2022/12/14 08:06:48;;;;;;;9.20;8.93;;;-2.60;99.90;;;;;;5144460;27;20229;-82
2022/12/14 08:09:18;;;;;;;9.47;9.17;;;-2.60;99.90;;;;;;5149933;27;20209;-85
2022/12/14 08:11:48;;;;;;;9.47;9.17;;;-2.50;99.90;;;;;;5164201;27;20292;-82
2022/12/14 08:14:18;;;;;;;8.77;8.57;;;-2.40;99.90;;;;;;5164481;27;20235;-81
2022/12/14 08:16:55;;;;;;;9.30;9.00;;;-2.30;99.90;;;;;;5164774;27;20213;-83
2022/12/14 08:19:24;;;;;;;9.47;9.17;;;-2.30;99.90;;;;;;5164580;27;20199;-82
2022/12/14 08:21:56;;;;;;;9.57;9.27;;;-2.30;99.90;;;;;;5163610;27;20225;-84
2022/12/14 08:24:26;;;;;;;9.37;9.07;;;-2.30;99.90;;;;;;5159559;27;20280;-83
2022/12/14 08:26:54;;;;;;;9.40;9.10;;;-2.30;99.90;;;;;;5143860;27;20226;-83
2022/12/14 08:29:22;;;;;;;9.30;9.00;;;-2.40;99.90;;;;;;5141551;27;20316;-83
2022/12/14 08:32:01;;;;;;;9.50;9.20;;;-2.40;99.90;;;;;;5139883;27;20256;-84
2022/12/14 08:34:29;;;;;;;9.37;9.07;;;-2.40;99.90;;;;;;5141130;27;20224;-84
2022/12/14 08:36:59;;;;;;;9.27;8.97;;;-2.40;99.90;;;;;;5140548;27;20251;-83
2022/12/14 08:39:28;;;;;;;9.40;9.10;;;-2.40;99.90;;;;;;5143160;27;20242;-83
2022/12/14 08:41:58;;;;;;;9.43;9.13;;;-2.30;99.90;;;;;;5143841;27;20231;-84
2022/12/14 08:44:28;;;;;;;9.30;9.00;;;-2.30;99.90;;;;;;5144194;27;20233;-84
2022/12/14 08:46:59;;;;;;;9.47;9.17;;;-2.30;99.90;;;;;;5142322;27;20266;-84
2022/12/14 08:49:27;;;;;;;9.30;9.00;;;-2.20;99.90;;;;;;5142435;27;20226;-83
2022/12/14 08:51:55;;;;;;;9.60;9.30;;;-2.30;99.90;;;;;;5141588;27;20238;-83
2022/12/14 08:54:28;;;;;;;9.67;9.37;;;-2.30;99.90;;;;;;5145305;27;20228;-83
2022/12/14 08:56:55;;;;;;;9.70;9.40;;;-2.40;99.90;;;;;;5146933;27;20220;-84
2022/12/14 08:59:25;;;;;;;9.60;9.30;;;-2.40;99.90;;;;;;5163570;27;20252;-85
2022/12/14 09:01:53;;;;;;;9.30;9.00;;;-2.30;99.90;;;;;;5162827;27;20236;-85
2022/12/14 09:04:34;;;;;;;9.90;9.60;;;-2.30;99.90;;;;;;5160220;27;20224;-83
2022/12/14 09:07:01;;;;;;;10.07;9.77;;;-2.30;99.90;;;;;;5143564;27;21085;-82
2022/12/14 09:09:30;;;;;;;9.77;9.47;;;-2.30;99.90;;;;;;5143566;27;20270;-83
2022/12/14 09:12:05;;;;;;;9.77;9.47;;;-2.30;99.90;;;;;;5141911;27;20232;-82
2022/12/14 09:14:45;;;;;;;10.60;10.30;;;-2.20;99.90;;;;;;5142424;27;20239;-84
2022/12/14 09:17:17;;;;;;;9.47;9.17;;;-0.90;99.90;;;;;;5141633;27;20256;-84
2022/12/14 09:19:57;;;;;;;10.00;9.70;;;-0.60;99.90;;;;;;5139852;27;20222;-86
2022/12/14 09:22:24;;;;;;;9.73;9.43;;;-1.10;99.90;;;;;;5140613;27;20412;-85
2022/12/14 09:24:55;;;;;;;9.47;9.17;;;-1.50;99.90;;;;;;5142017;27;20283;-84
2022/12/14 09:27:23;;;;;;;9.73;9.43;;;-1.80;99.90;;;;;;5140638;27;20233;-85
2022/12/14 09:29:53;;;;;;;9.47;9.17;;;-2.00;99.90;;;;;;5120189;28;20229;-85
2022/12/14 09:32:22;;;;;;;9.60;9.30;;;-2.10;99.90;;;;;;5119337;28;20243;-86
2022/12/14 09:37:39;;;;;;;9.80;9.50;;;-2.20;99.90;;;;;;5129334;28;20241;-83
2022/12/14 09:40:09;;;;;;;9.53;9.23;;;-2.20;99.90;;;;;;5129323;28;20237;-84
2022/12/14 09:42:55;;;;;;;9.00;8.80;;;-2.20;99.90;;;;;;5122037;28;20232;-84
2022/12/14 09:45:34;;;;;;;9.13;8.83;;;-2.20;99.90;;;;;;5123599;28;20232;-84
2022/12/14 09:48:11;;;;;;;9.27;8.97;;;-2.20;99.90;;;;;;5122630;28;20233;-85
2022/12/14 09:50:50;;;;;;;9.40;9.10;;;-2.20;99.90;;;;;;5123752;28;20238;-85
2022/12/14 09:53:19;;;;;;;9.33;9.03;;;-2.30;99.90;;;;;;5122682;28;20248;-85
2022/12/14 09:55:50;;;;;;;9.30;9.00;;;-2.30;99.90;;;;;;5132371;27;20232;-85
2022/12/14 09:58:21;;;;;;;9.90;9.60;;;-2.30;99.90;;;;;;5141413;27;20311;-85
2022/12/14 10:00:59;;;;;;;9.70;9.40;;;-2.30;99.90;;;;;;5141425;27;20238;-85
2022/12/14 10:03:48;;;;;;;9.70;9.40;;;-2.30;99.90;;;;;;5142240;27;20266;-85
2022/12/14 10:06:41;;;;;;;9.80;9.50;;;-2.40;99.90;;;;;;5141973;27;20226;-86
2022/12/14 10:09:20;;;;;;;9.40;9.10;;;-2.40;99.90;;;;;;5141075;27;20685;-84
2022/12/14 10:12:00;;;;;;;9.37;9.07;;;-2.40;99.90;;;;;;5143036;27;20224;-83
2022/12/14 10:14:46;;;;;;;9.60;9.30;;;-2.40;99.90;;;;;;5148235;27;20319;-84
2022/12/14 10:17:23;;;;;;;9.50;9.20;;;-2.50;99.90;;;;;;5166333;27;20235;-82
2022/12/14 10:20:03;;;;;;;9.30;9.00;;;-2.50;99.90;;;;;;5138274;27;20228;-82
2022/12/14 10:25:35;;;;;;;9.43;9.13;;;-2.60;99.90;;;;;;5150536;27;20721;-84
2022/12/14 10:28:23;;;;;;;9.70;9.40;;;-2.70;99.90;;;;;;5144710;27;20232;-83
2022/12/14 10:31:00;;;;;;;9.90;9.60;;;-2.60;99.90;;;;;;5132815;27;20232;-83
2022/12/14 10:33:30;;;;;;;9.67;9.37;;;-2.70;99.90;;;;;;5156329;27;20222;-83
2022/12/14 10:36:16;;;;;;;10.10;9.80;;;-2.60;99.90;;;;;;5146121;27;20237;-82
2022/12/14 10:42:18;;;;;;;9.50;9.20;;;-2.60;99.90;;;;;;5143045;27;20288;-85
2022/12/14 10:45:05;;;;;;;9.50;9.20;;;-2.70;99.90;;;;;;5144801;27;20263;-84
2022/12/14 10:47:42;;;;;;;9.37;9.07;;;-2.60;99.90;;;;;;5145496;27;20248;-85
2022/12/14 10:50:21;;;;;;;9.30;9.00;;;-2.50;99.90;;;;;;5141203;27;20237;-85
2022/12/14 10:52:56;;;;;;;9.30;9.00;;;-2.50;99.90;;;;;;5147320;27;20243;-85
2022/12/14 10:55:31;;;;;;;9.30;9.00;;;-2.50;99.90;;;;;;5171633;27;20319;-84
2022/12/14 10:57:59;;;;;;;9.70;9.40;;;-2.60;99.90;;;;;;5152566;27;20267;-84
2022/12/14 11:00:27;;;;;;;9.40;9.10;;;-2.60;99.90;;;;;;5143769;27;20232;-83
2022/12/14 11:02:58;;;;;;;9.53;9.23;;;-2.60;99.90;;;;;;5143421;27;20289;-83
2022/12/14 11:05:36;;;;;;;9.70;9.40;;;-2.60;99.90;;;;;;5144074;27;20249;-83
2022/12/14 11:08:05;;;;;;;9.20;8.90;;;-2.50;99.90;;;;;;5145304;27;20274;-84
2022/12/14 11:13:31;;;;;;;9.30;9.00;;;-2.50;99.90;;;;;;5141638;27;20227;-85
2022/12/14 11:16:25;;;;;;;9.40;9.10;;;-2.40;99.90;;;;;;5142898;27;20242;-84
2022/12/14 11:19:21;;;;;;;9.30;9.00;;;-2.30;99.90;;;;;;5146991;27;20224;-86
2022/12/14 11:22:09;;;;;;;9.60;9.30;;;-2.20;99.90;;;;;;5157802;27;20240;-85
2022/12/14 11:24:48;;;;;;;9.47;9.17;;;-2.10;99.90;;;;;;5166231;27;20277;-86
2022/12/14 11:27:26;;;;;;;9.40;9.10;;;-2.00;99.90;;;;;;5155105;27;20230;-86
2022/12/14 11:29:55;;;;;;;9.80;9.50;;;-2.00;99.90;;;;;;5150990;27;20247;-86
2022/12/14 11:32:25;;;;;;;9.70;9.40;;;-2.00;99.90;;;;;;5166088;27;20240;-86
2022/12/14 11:35:02;;;;;;;9.60;9.30;;;-2.00;99.90;;;;;;5167501;27;20239;-86
2022/12/14 11:37:31;;;;;;;9.43;9.13;;;-1.90;99.90;;;;;;5165828;27;20201;-86
2022/12/14 11:40:02;;;;;;;9.37;9.07;;;-1.90;99.90;;;;;;5166122;27;20337;-86
2022/12/14 11:42:41;;;;;;;9.57;9.27;;;-2.00;99.90;;;;;;5163570;27;20304;-86
2022/12/14 11:45:36;;;;;;;9.33;9.03;;;-1.90;99.90;;;;;;5164133;27;20257;-84
2022/12/14 11:48:22;;;;;;;9.10;8.80;;;-1.90;99.90;;;;;;5165065;27;20219;-84
2022/12/14 11:50:53;;;;;;;9.27;8.97;;;-1.80;99.90;;;;;;5177322;27;20243;-84
2022/12/14 11:53:23;;;;;;;9.17;8.87;;;-2.00;99.90;;;;;;5162999;27;20242;-83
2022/12/14 11:56:02;;;;;;;9.10;8.80;;;-2.10;99.90;;;;;;5164228;27;20298;-83
2022/12/14 11:58:47;;;;;;;9.00;8.70;;;-2.10;99.90;;;;;;5163596;27;20200;-83
2022/12/14 12:01:19;;;;;;;8.67;8.47;;;-2.10;99.90;;;;;;5163518;27;20243;-84
2022/12/14 12:03:55;;;;;;;9.03;8.73;;;-2.00;99.90;;;;;;5159220;27;20233;-85
2022/12/14 12:06:28;;;;;;;8.90;8.70;;;-1.90;99.90;;;;;;5140884;27;20217;-85
2022/12/14 12:09:03;;;;;;;9.23;8.93;;;-1.80;99.90;;;;;;5142659;27;20222;-82
2022/12/14 12:11:34;;;;;;;9.43;9.13;;;-1.80;99.90;;;;;;5141793;27;20243;-82
2022/12/14 12:16:48;;;;;;;9.30;9.00;;;-1.70;99.90;;;;;;5162781;27;20229;-81
2022/12/14 12:19:29;;;;;;;8.93;8.70;;;-1.60;99.90;;;;;;5143335;27;20217;-82
2022/12/14 12:22:32;;;;;;;8.80;8.60;;;-1.50;99.90;;;;;;5142255;27;20257;-83
2022/12/14 12:25:04;;;;;;;8.77;8.57;;;-1.50;99.90;;;;;;5141913;27;20298;-84
2022/12/14 12:27:39;;;;;;;9.13;8.83;;;-1.40;99.90;;;;;;5131623;27;20285;-84
2022/12/14 12:30:34;;;;;;;9.23;8.93;;;-1.40;99.90;;;;;;5121707;28;20235;-83
2022/12/14 12:33:22;;;;;;;9.10;8.80;;;-1.30;99.90;;;;;;5119517;28;20270;-83
2022/12/14 12:35:54;;;;;;;9.07;8.77;;;-1.20;99.90;;;;;;5120350;28;20277;-84
2022/12/14 12:38:40;;;;;;;9.40;9.10;;;-1.30;99.90;;;;;;5120164;28;20227;-84
2022/12/14 12:41:25;;;;;;;9.47;9.17;;;-1.30;99.90;;;;;;5130314;27;20235;-83
2022/12/14 12:44:06;;;;;;;9.50;9.20;;;-1.30;99.90;;;;;;5186295;22;20240;-84
2022/12/14 12:46:44;;;;;;;9.20;8.90;;;-1.30;99.90;;;;;;5171357;27;20213;-86
2022/12/14 12:49:14;;;;;;;9.30;9.00;;;-1.20;99.90;;;;;;5172450;27;20229;-85
2022/12/14 12:51:53;;;;;;;9.30;9.00;;;-1.20;99.90;;;;;;5160150;27;20220;-85
2022/12/14 12:54:28;;;;;;;9.47;9.17;;;-1.20;99.90;;;;;;5159954;27;20236;-86
2022/12/14 12:56:58;;;;;;;9.33;9.03;;;-1.20;99.90;;;;;;5157602;27;20237;-84
2022/12/14 12:59:38;;;;;;;9.20;8.90;;;-1.10;99.90;;;;;;5160022;27;20220;-87
2022/12/14 13:02:24;;;;;;;9.40;9.10;;;-1.00;99.90;;;;;;5153440;27;20234;-84
2022/12/14 13:05:02;;;;;;;9.37;9.07;;;-1.00;99.90;;;;;;5120037;27;20255;-85
2022/12/14 13:07:40;;;;;;;9.30;9.00;;;-1.00;99.90;;;;;;5140943;27;20246;-85
2022/12/14 13:10:19;;;;;;;9.33;9.03;;;-0.90;99.90;;;;;;5134998;27;20231;-85
2022/12/14 13:18:30;;;;;;;9.50;9.20;;;-0.80;99.90;;;;;;5115830;28;20266;-85
2022/12/14 13:21:02;;;;;;;8.70;8.50;;;-0.90;99.90;;;;;;5117279;28;20255;-84
2022/12/14 13:23:30;;;;;;;9.20;8.90;;;-0.90;99.90;;;;;;5109825;28;20260;-85
2022/12/14 13:26:16;;;;;;;9.20;8.90;;;-1.00;99.90;;;;;;5110783;28;20316;-85
2022/12/14 13:28:56;;;;;;;8.90;8.70;;;-1.00;99.90;;;;;;5114822;28;20242;-85
2022/12/14 13:31:43;;;;;;;8.87;8.67;;;-0.90;99.90;;;;;;5113596;28;20224;-84
2022/12/14 13:34:37;;;;;;;9.20;8.90;;;-0.80;99.90;;;;;;5119130;28;20223;-86
2022/12/14 13:37:46;;;;;;;9.30;9.00;;;-0.70;99.90;;;;;;5114480;28;20309;-85
2022/12/14 13:40:49;;;;;;;9.30;9.00;;;-0.70;99.90;;;;;;5114371;28;20233;-86
2022/12/14 13:44:08;;;;;;;9.20;8.90;;;-0.70;99.90;;;;;;5114953;28;20237;-85
2022/12/14 13:46:46;;;;;;;9.30;9.00;;;-0.70;99.90;;;;;;5109845;28;20211;-83
2022/12/14 13:49:24;;;;;;;9.60;9.30;;;-0.90;99.90;;;;;;5117178;28;20216;-86
2022/12/14 13:51:57;;;;;;;9.53;9.23;;;-1.00;99.90;;;;;;5116809;28;20251;-85
2022/12/14 13:54:33;;;;;;;9.40;9.10;;;-1.10;99.90;;;;;;5117045;28;20225;-85
2022/12/14 13:57:24;;;;;;;9.37;9.07;;;-1.10;99.90;;;;;;5118037;28;20229;-87
2022/12/14 14:00:01;;;;;;;9.40;9.10;;;-1.10;99.90;;;;;;5112380;28;20240;-86